Terminal Aerodrome Forecast
Issued by NWS

Home | Current Version | Previous Version | Text Only | Print | Product List | Glossary On
Versions: 1 2 3 4 5 6 7 8 9 10 11 12 13 14 15
000
FTUS45 KTWC 271120
TAFOLS
TAF
KOLS 271120Z 2712/2812 VRB04KT P6SM SCT090 BKN150
     FM272100 31009KT P6SM VCSH SCT060 BKN120
     FM280400 10005KT P6SM SCT060 BKN120=

USA.gov is the U.S. government's official web portal to all federal, state and local government web resources and services.